sensor_id;sensor_type;location;lat;lon;timestamp;temperature;humidity
27671;DHT22;15077;49.704;9.908;2023-02-22T00:00:41;9.70;62.30
27671;DHT22;15077;49.704;9.908;2023-02-22T00:03:13;9.60;62.20
27671;DHT22;15077;49.704;9.908;2023-02-22T00:06:00;9.60;62.30
27671;DHT22;15077;49.704;9.908;2023-02-22T00:08:32;9.60;62.30
27671;DHT22;15077;49.704;9.908;2023-02-22T00:11:02;9.50;62.20
27671;DHT22;15077;49.704;9.908;2023-02-22T00:13:29;9.50;62.20
27671;DHT22;15077;49.704;9.908;2023-02-22T00:15:56;9.50;62.30
27671;DHT22;15077;49.704;9.908;2023-02-22T00:18:23;9.50;62.40
27671;DHT22;15077;49.704;9.908;2023-02-22T00:20:52;9.40;62.40
27671;DHT22;15077;49.704;9.908;2023-02-22T00:23:20;9.40;62.40
27671;DHT22;15077;49.704;9.908;2023-02-22T00:25:49;9.40;62.30
27671;DHT22;15077;49.704;9.908;2023-02-22T00:28:16;9.40;62.40
27671;DHT22;15077;49.704;9.908;2023-02-22T00:30:43;9.40;62.30
27671;DHT22;15077;49.704;9.908;2023-02-22T00:33:11;9.30;62.40
27671;DHT22;15077;49.704;9.908;2023-02-22T00:35:38;9.30;62.40
27671;DHT22;15077;49.704;9.908;2023-02-22T00:38:04;9.30;62.50
27671;DHT22;15077;49.704;9.908;2023-02-22T00:40:32;9.30;62.50
27671;DHT22;15077;49.704;9.908;2023-02-22T00:43:02;9.30;62.50
27671;DHT22;15077;49.704;9.908;2023-02-22T00:45:31;9.30;62.60
27671;DHT22;15077;49.704;9.908;2023-02-22T00:47:58;9.30;62.60
27671;DHT22;15077;49.704;9.908;2023-02-22T00:50:27;9.20;62.60
27671;DHT22;15077;49.704;9.908;2023-02-22T00:52:55;9.20;62.60
27671;DHT22;15077;49.704;9.908;2023-02-22T00:55:25;9.20;62.70
27671;DHT22;15077;49.704;9.908;2023-02-22T00:57:52;9.10;62.70
27671;DHT22;15077;49.704;9.908;2023-02-22T01:00:22;9.10;62.70
27671;DHT22;15077;49.704;9.908;2023-02-22T01:02:53;9.10;62.70
27671;DHT22;15077;49.704;9.908;2023-02-22T01:05:24;9.10;62.70
27671;DHT22;15077;49.704;9.908;2023-02-22T01:07:52;9.10;62.70
27671;DHT22;15077;49.704;9.908;2023-02-22T01:10:21;9.10;62.70
27671;DHT22;15077;49.704;9.908;2023-02-22T01:12:49;9.00;62.60
27671;DHT22;15077;49.704;9.908;2023-02-22T01:15:19;9.00;62.70
27671;DHT22;15077;49.704;9.908;2023-02-22T01:17:47;9.00;62.70
27671;DHT22;15077;49.704;9.908;2023-02-22T01:20:14;9.00;62.70
27671;DHT22;15077;49.704;9.908;2023-02-22T01:22:44;8.90;62.70
27671;DHT22;15077;49.704;9.908;2023-02-22T01:25:17;8.90;62.80
27671;DHT22;15077;49.704;9.908;2023-02-22T01:27:45;8.90;63.00
27671;DHT22;15077;49.704;9.908;2023-02-22T01:30:13;8.90;62.80
27671;DHT22;15077;49.704;9.908;2023-02-22T01:32:40;8.90;62.80
27671;DHT22;15077;49.704;9.908;2023-02-22T01:35:14;8.80;62.80
27671;DHT22;15077;49.704;9.908;2023-02-22T01:37:43;8.80;62.90
27671;DHT22;15077;49.704;9.908;2023-02-22T01:40:14;8.80;62.80
27671;DHT22;15077;49.704;9.908;2023-02-22T01:43:04;8.80;63.00
27671;DHT22;15077;49.704;9.908;2023-02-22T01:48:31;8.80;63.20
27671;DHT22;15077;49.704;9.908;2023-02-22T01:51:14;8.70;63.00
27671;DHT22;15077;49.704;9.908;2023-02-22T01:56:23;8.70;63.60
27671;DHT22;15077;49.704;9.908;2023-02-22T01:59:03;8.70;63.00
27671;DHT22;15077;49.704;9.908;2023-02-22T02:01:34;8.70;63.10
27671;DHT22;15077;49.704;9.908;2023-02-22T02:04:05;8.70;63.00
27671;DHT22;15077;49.704;9.908;2023-02-22T02:06:35;8.60;63.00
27671;DHT22;15077;49.704;9.908;2023-02-22T02:11:42;8.60;63.20
27671;DHT22;15077;49.704;9.908;2023-02-22T02:14:09;8.60;63.10
27671;DHT22;15077;49.704;9.908;2023-02-22T02:16:41;8.60;63.10
27671;DHT22;15077;49.704;9.908;2023-02-22T02:35:05;8.50;63.40
27671;DHT22;15077;49.704;9.908;2023-02-22T02:38:10;8.50;63.60
27671;DHT22;15077;49.704;9.908;2023-02-22T02:41:09;8.40;63.60
27671;DHT22;15077;49.704;9.908;2023-02-22T02:44:00;8.40;63.60
27671;DHT22;15077;49.704;9.908;2023-02-22T02:46:39;8.40;63.70
27671;DHT22;15077;49.704;9.908;2023-02-22T02:49:18;8.40;63.60
27671;DHT22;15077;49.704;9.908;2023-02-22T02:51:53;8.40;63.70
27671;DHT22;15077;49.704;9.908;2023-02-22T02:54:23;8.40;63.80
27671;DHT22;15077;49.704;9.908;2023-02-22T02:56:50;8.40;63.80
27671;DHT22;15077;49.704;9.908;2023-02-22T02:59:35;8.40;63.80
27671;DHT22;15077;49.704;9.908;2023-02-22T03:02:36;8.40;64.20
27671;DHT22;15077;49.704;9.908;2023-02-22T03:08:30;8.40;64.30
27671;DHT22;15077;49.704;9.908;2023-02-22T03:11:23;8.40;64.00
27671;DHT22;15077;49.704;9.908;2023-02-22T03:13:55;8.40;64.10
27671;DHT22;15077;49.704;9.908;2023-02-22T03:16:48;8.40;64.00
27671;DHT22;15077;49.704;9.908;2023-02-22T03:19:26;8.40;64.50
27671;DHT22;15077;49.704;9.908;2023-02-22T03:22:11;8.30;64.20
27671;DHT22;15077;49.704;9.908;2023-02-22T03:25:11;8.30;64.30
27671;DHT22;15077;49.704;9.908;2023-02-22T03:27:42;8.30;64.40
27671;DHT22;15077;49.704;9.908;2023-02-22T03:30:36;8.30;64.20
27671;DHT22;15077;49.704;9.908;2023-02-22T03:33:10;8.30;64.40
27671;DHT22;15077;49.704;9.908;2023-02-22T03:35:49;8.20;64.30
27671;DHT22;15077;49.704;9.908;2023-02-22T03:38:23;8.20;64.30
27671;DHT22;15077;49.704;9.908;2023-02-22T03:40:54;8.20;64.40
27671;DHT22;15077;49.704;9.908;2023-02-22T03:43:30;8.20;64.30
27671;DHT22;15077;49.704;9.908;2023-02-22T03:45:59;8.20;64.40
27671;DHT22;15077;49.704;9.908;2023-02-22T03:48:51;8.20;64.40
27671;DHT22;15077;49.704;9.908;2023-02-22T03:51:27;8.20;64.50
27671;DHT22;15077;49.704;9.908;2023-02-22T03:53:54;8.20;64.30
27671;DHT22;15077;49.704;9.908;2023-02-22T03:56:27;8.20;64.30
27671;DHT22;15077;49.704;9.908;2023-02-22T03:59:06;8.20;64.30
27671;DHT22;15077;49.704;9.908;2023-02-22T04:01:34;8.20;64.40
27671;DHT22;15077;49.704;9.908;2023-02-22T04:04:00;8.20;64.30
27671;DHT22;15077;49.704;9.908;2023-02-22T04:06:27;8.20;64.40
27671;DHT22;15077;49.704;9.908;2023-02-22T04:08:54;8.10;64.40
27671;DHT22;15077;49.704;9.908;2023-02-22T04:11:20;8.10;64.40
27671;DHT22;15077;49.704;9.908;2023-02-22T04:13:46;8.10;64.40
27671;DHT22;15077;49.704;9.908;2023-02-22T04:16:12;8.10;64.30
27671;DHT22;15077;49.704;9.908;2023-02-22T04:18:38;8.10;64.40
27671;DHT22;15077;49.704;9.908;2023-02-22T04:21:04;8.10;64.30
27671;DHT22;15077;49.704;9.908;2023-02-22T04:23:30;8.10;64.30
27671;DHT22;15077;49.704;9.908;2023-02-22T04:25:56;8.10;64.20
27671;DHT22;15077;49.704;9.908;2023-02-22T04:28:22;8.00;64.20
27671;DHT22;15077;49.704;9.908;2023-02-22T04:30:48;8.10;64.20
27671;DHT22;15077;49.704;9.908;2023-02-22T04:33:14;8.00;64.20
27671;DHT22;15077;49.704;9.908;2023-02-22T04:35:40;8.00;64.20
27671;DHT22;15077;49.704;9.908;2023-02-22T04:38:06;8.00;64.20
27671;DHT22;15077;49.704;9.908;2023-02-22T04:40:34;8.00;64.20
27671;DHT22;15077;49.704;9.908;2023-02-22T04:43:00;8.00;64.20
27671;DHT22;15077;49.704;9.908;2023-02-22T04:45:26;7.90;64.20
27671;DHT22;15077;49.704;9.908;2023-02-22T04:47:52;7.90;64.20
27671;DHT22;15077;49.704;9.908;2023-02-22T04:50:18;7.90;64.20
27671;DHT22;15077;49.704;9.908;2023-02-22T04:52:43;7.90;64.20
27671;DHT22;15077;49.704;9.908;2023-02-22T04:55:10;7.90;64.20
27671;DHT22;15077;49.704;9.908;2023-02-22T04:57:36;7.90;64.20
27671;DHT22;15077;49.704;9.908;2023-02-22T05:00:03;7.90;64.30
27671;DHT22;15077;49.704;9.908;2023-02-22T05:02:31;7.90;64.40
27671;DHT22;15077;49.704;9.908;2023-02-22T05:04:56;7.90;64.30
27671;DHT22;15077;49.704;9.908;2023-02-22T05:07:22;7.80;64.30
27671;DHT22;15077;49.704;9.908;2023-02-22T05:09:48;7.80;64.40
27671;DHT22;15077;49.704;9.908;2023-02-22T05:12:14;7.80;64.40
27671;DHT22;15077;49.704;9.908;2023-02-22T05:14:41;7.80;64.50
27671;DHT22;15077;49.704;9.908;2023-02-22T05:17:07;7.80;64.60
27671;DHT22;15077;49.704;9.908;2023-02-22T05:19:33;7.80;64.50
27671;DHT22;15077;49.704;9.908;2023-02-22T05:21:58;7.80;64.60
27671;DHT22;15077;49.704;9.908;2023-02-22T05:24:24;7.80;64.60
27671;DHT22;15077;49.704;9.908;2023-02-22T05:26:50;7.80;64.60
27671;DHT22;15077;49.704;9.908;2023-02-22T05:29:17;7.80;64.70
27671;DHT22;15077;49.704;9.908;2023-02-22T05:31:44;7.80;64.70
27671;DHT22;15077;49.704;9.908;2023-02-22T05:34:09;7.80;64.70
27671;DHT22;15077;49.704;9.908;2023-02-22T05:36:35;7.70;64.70
27671;DHT22;15077;49.704;9.908;2023-02-22T05:39:01;7.70;64.70
27671;DHT22;15077;49.704;9.908;2023-02-22T05:41:27;7.70;64.70
27671;DHT22;15077;49.704;9.908;2023-02-22T05:43:53;7.70;65.40
27671;DHT22;15077;49.704;9.908;2023-02-22T05:46:19;7.70;64.80
27671;DHT22;15077;49.704;9.908;2023-02-22T05:48:44;7.70;64.80
27671;DHT22;15077;49.704;9.908;2023-02-22T05:51:10;7.70;64.80
27671;DHT22;15077;49.704;9.908;2023-02-22T05:53:36;7.70;64.90
27671;DHT22;15077;49.704;9.908;2023-02-22T05:56:02;7.70;65.00
27671;DHT22;15077;49.704;9.908;2023-02-22T05:58:28;7.70;65.00
27671;DHT22;15077;49.704;9.908;2023-02-22T06:00:54;7.70;65.00
27671;DHT22;15077;49.704;9.908;2023-02-22T06:03:20;7.70;65.10
27671;DHT22;15077;49.704;9.908;2023-02-22T06:05:45;7.70;65.10
27671;DHT22;15077;49.704;9.908;2023-02-22T06:08:11;7.70;65.10
27671;DHT22;15077;49.704;9.908;2023-02-22T06:10:37;7.70;65.10
27671;DHT22;15077;49.704;9.908;2023-02-22T06:13:04;7.70;65.10
27671;DHT22;15077;49.704;9.908;2023-02-22T06:15:30;7.70;65.10
27671;DHT22;15077;49.704;9.908;2023-02-22T06:17:57;7.70;65.10
27671;DHT22;15077;49.704;9.908;2023-02-22T06:20:25;7.70;65.10
27671;DHT22;15077;49.704;9.908;2023-02-22T06:22:54;7.70;65.20
27671;DHT22;15077;49.704;9.908;2023-02-22T06:25:24;7.70;65.20
27671;DHT22;15077;49.704;9.908;2023-02-22T06:27:52;7.70;65.30
27671;DHT22;15077;49.704;9.908;2023-02-22T06:32:46;7.70;65.30
27671;DHT22;15077;49.704;9.908;2023-02-22T06:35:13;7.70;65.20
27671;DHT22;15077;49.704;9.908;2023-02-22T06:37:39;7.70;65.50
27671;DHT22;15077;49.704;9.908;2023-02-22T06:40:05;7.70;65.30
27671;DHT22;15077;49.704;9.908;2023-02-22T06:42:31;7.70;65.40
27671;DHT22;15077;49.704;9.908;2023-02-22T06:44:57;7.70;65.30
27671;DHT22;15077;49.704;9.908;2023-02-22T06:47:23;7.70;65.30
27671;DHT22;15077;49.704;9.908;2023-02-22T06:49:56;7.70;66.00
27671;DHT22;15077;49.704;9.908;2023-02-22T06:52:25;7.70;65.60
27671;DHT22;15077;49.704;9.908;2023-02-22T06:54:51;7.70;65.50
27671;DHT22;15077;49.704;9.908;2023-02-22T06:57:17;7.70;65.50
27671;DHT22;15077;49.704;9.908;2023-02-22T06:59:43;7.70;65.50
27671;DHT22;15077;49.704;9.908;2023-02-22T07:02:12;7.70;65.50
27671;DHT22;15077;49.704;9.908;2023-02-22T07:04:38;7.70;65.60
27671;DHT22;15077;49.704;9.908;2023-02-22T07:07:04;7.80;65.60
27671;DHT22;15077;49.704;9.908;2023-02-22T07:09:29;7.80;65.70
27671;DHT22;15077;49.704;9.908;2023-02-22T07:11:55;7.80;65.70
27671;DHT22;15077;49.704;9.908;2023-02-22T07:14:21;7.80;65.70
27671;DHT22;15077;49.704;9.908;2023-02-22T07:16:47;7.80;65.80
27671;DHT22;15077;49.704;9.908;2023-02-22T07:19:13;7.80;65.80
27671;DHT22;15077;49.704;9.908;2023-02-22T07:21:39;7.80;65.90
27671;DHT22;15077;49.704;9.908;2023-02-22T07:24:04;7.80;65.90
27671;DHT22;15077;49.704;9.908;2023-02-22T07:26:30;7.80;66.00
27671;DHT22;15077;49.704;9.908;2023-02-22T07:29:03;7.80;66.00
27671;DHT22;15077;49.704;9.908;2023-02-22T07:31:34;7.80;66.10
27671;DHT22;15077;49.704;9.908;2023-02-22T07:34:03;7.80;66.20
27671;DHT22;15077;49.704;9.908;2023-02-22T07:36:29;7.80;66.10
27671;DHT22;15077;49.704;9.908;2023-02-22T07:38:55;7.80;66.20
27671;DHT22;15077;49.704;9.908;2023-02-22T07:41:20;7.80;66.30
27671;DHT22;15077;49.704;9.908;2023-02-22T07:43:47;7.80;66.40
27671;DHT22;15077;49.704;9.908;2023-02-22T07:46:13;7.80;66.50
27671;DHT22;15077;49.704;9.908;2023-02-22T07:48:39;7.80;66.60
27671;DHT22;15077;49.704;9.908;2023-02-22T07:51:05;7.90;66.60
27671;DHT22;15077;49.704;9.908;2023-02-22T07:53:31;7.90;66.70
27671;DHT22;15077;49.704;9.908;2023-02-22T07:56:03;7.90;66.80
27671;DHT22;15077;49.704;9.908;2023-02-22T07:58:30;7.90;67.00
27671;DHT22;15077;49.704;9.908;2023-02-22T08:00:57;7.90;67.00
27671;DHT22;15077;49.704;9.908;2023-02-22T08:03:25;8.00;67.00
27671;DHT22;15077;49.704;9.908;2023-02-22T08:05:54;8.00;67.00
27671;DHT22;15077;49.704;9.908;2023-02-22T08:08:22;8.00;67.00
27671;DHT22;15077;49.704;9.908;2023-02-22T08:10:49;8.00;67.10
27671;DHT22;15077;49.704;9.908;2023-02-22T08:13:16;8.00;67.10
27671;DHT22;15077;49.704;9.908;2023-02-22T08:15:43;8.00;67.20
27671;DHT22;15077;49.704;9.908;2023-02-22T08:18:11;8.10;67.30
27671;DHT22;15077;49.704;9.908;2023-02-22T08:20:40;8.10;67.40
27671;DHT22;15077;49.704;9.908;2023-02-22T08:23:08;8.10;67.40
27671;DHT22;15077;49.704;9.908;2023-02-22T08:25:35;8.20;67.60
27671;DHT22;15077;49.704;9.908;2023-02-22T08:28:05;8.20;67.50
27671;DHT22;15077;49.704;9.908;2023-02-22T08:30:33;8.30;67.60
27671;DHT22;15077;49.704;9.908;2023-02-22T08:33:00;8.30;67.70
27671;DHT22;15077;49.704;9.908;2023-02-22T08:35:28;8.30;67.60
27671;DHT22;15077;49.704;9.908;2023-02-22T08:37:59;8.40;67.70
27671;DHT22;15077;49.704;9.908;2023-02-22T08:40:32;8.40;67.70
27671;DHT22;15077;49.704;9.908;2023-02-22T08:42:59;8.40;67.70
27671;DHT22;15077;49.704;9.908;2023-02-22T08:45:28;8.50;67.80
27671;DHT22;15077;49.704;9.908;2023-02-22T08:47:54;8.50;68.10
27671;DHT22;15077;49.704;9.908;2023-02-22T08:50:28;8.50;68.50
27671;DHT22;15077;49.704;9.908;2023-02-22T08:52:59;8.60;68.60
27671;DHT22;15077;49.704;9.908;2023-02-22T08:55:29;8.60;68.40
27671;DHT22;15077;49.704;9.908;2023-02-22T08:57:57;8.60;68.40
27671;DHT22;15077;49.704;9.908;2023-02-22T09:00:25;8.60;68.50
27671;DHT22;15077;49.704;9.908;2023-02-22T09:02:54;8.60;68.60
27671;DHT22;15077;49.704;9.908;2023-02-22T09:05:20;8.70;69.20
27671;DHT22;15077;49.704;9.908;2023-02-22T09:07:46;8.70;68.60
27671;DHT22;15077;49.704;9.908;2023-02-22T09:10:14;8.80;68.50
27671;DHT22;15077;49.704;9.908;2023-02-22T09:12:43;8.80;68.60
27671;DHT22;15077;49.704;9.908;2023-02-22T09:15:10;8.90;68.60
27671;DHT22;15077;49.704;9.908;2023-02-22T09:17:36;8.90;68.60
27671;DHT22;15077;49.704;9.908;2023-02-22T09:20:06;9.00;69.20
27671;DHT22;15077;49.704;9.908;2023-02-22T09:22:33;9.00;68.70
27671;DHT22;15077;49.704;9.908;2023-02-22T09:24:59;9.10;68.70
27671;DHT22;15077;49.704;9.908;2023-02-22T09:27:24;9.10;68.70
27671;DHT22;15077;49.704;9.908;2023-02-22T09:29:53;9.20;68.90
27671;DHT22;15077;49.704;9.908;2023-02-22T09:32:21;9.20;69.00
27671;DHT22;15077;49.704;9.908;2023-02-22T09:34:48;9.30;69.10
27671;DHT22;15077;49.704;9.908;2023-02-22T09:37:16;9.40;69.70
27671;DHT22;15077;49.704;9.908;2023-02-22T09:39:43;9.40;69.10
27671;DHT22;15077;49.704;9.908;2023-02-22T09:42:34;9.50;69.10
27671;DHT22;15077;49.704;9.908;2023-02-22T09:45:28;9.60;69.50
27671;DHT22;15077;49.704;9.908;2023-02-22T09:48:03;9.60;69.30
27671;DHT22;15077;49.704;9.908;2023-02-22T09:50:39;9.70;69.40
27671;DHT22;15077;49.704;9.908;2023-02-22T09:55:58;9.80;69.70
27671;DHT22;15077;49.704;9.908;2023-02-22T09:58:38;9.90;69.70
27671;DHT22;15077;49.704;9.908;2023-02-22T10:01:41;9.90;70.00
27671;DHT22;15077;49.704;9.908;2023-02-22T10:04:40;10.00;70.20
27671;DHT22;15077;49.704;9.908;2023-02-22T10:07:23;10.10;70.20
27671;DHT22;15077;49.704;9.908;2023-02-22T10:09:56;10.20;70.30
27671;DHT22;15077;49.704;9.908;2023-02-22T10:15:29;10.40;71.10
27671;DHT22;15077;49.704;9.908;2023-02-22T10:21:39;10.90;72.00
27671;DHT22;15077;49.704;9.908;2023-02-22T10:24:59;11.20;72.40
27671;DHT22;15077;49.704;9.908;2023-02-22T10:27:31;11.50;73.70
27671;DHT22;15077;49.704;9.908;2023-02-22T10:30:06;11.90;73.30
27671;DHT22;15077;49.704;9.908;2023-02-22T10:32:44;12.20;72.70
27671;DHT22;15077;49.704;9.908;2023-02-22T10:35:23;12.50;72.70
27671;DHT22;15077;49.704;9.908;2023-02-22T10:37:59;12.90;72.20
27671;DHT22;15077;49.704;9.908;2023-02-22T10:40:36;13.20;72.10
27671;DHT22;15077;49.704;9.908;2023-02-22T10:43:05;13.50;72.80
27671;DHT22;15077;49.704;9.908;2023-02-22T10:45:33;13.80;71.90
27671;DHT22;15077;49.704;9.908;2023-02-22T10:48:10;14.10;71.90
27671;DHT22;15077;49.704;9.908;2023-02-22T10:50:42;14.40;71.40
27671;DHT22;15077;49.704;9.908;2023-02-22T10:53:10;14.60;71.30
27671;DHT22;15077;49.704;9.908;2023-02-22T10:59:01;15.30;70.40
27671;DHT22;15077;49.704;9.908;2023-02-22T11:04:11;15.90;69.60
27671;DHT22;15077;49.704;9.908;2023-02-22T11:06:42;16.10;69.00
27671;DHT22;15077;49.704;9.908;2023-02-22T11:09:11;16.40;68.50
27671;DHT22;15077;49.704;9.908;2023-02-22T11:11:43;16.60;68.20
27671;DHT22;15077;49.704;9.908;2023-02-22T11:14:13;16.90;68.00
27671;DHT22;15077;49.704;9.908;2023-02-22T11:16:52;17.10;67.10
27671;DHT22;15077;49.704;9.908;2023-02-22T11:19:28;17.30;66.30
27671;DHT22;15077;49.704;9.908;2023-02-22T11:22:20;17.40;66.00
27671;DHT22;15077;49.704;9.908;2023-02-22T11:25:04;17.50;65.00
27671;DHT22;15077;49.704;9.908;2023-02-22T11:27:38;17.50;64.90
27671;DHT22;15077;49.704;9.908;2023-02-22T11:33:05;17.70;65.10
27671;DHT22;15077;49.704;9.908;2023-02-22T11:38:54;18.00;64.00
27671;DHT22;15077;49.704;9.908;2023-02-22T11:41:28;18.20;64.50
27671;DHT22;15077;49.704;9.908;2023-02-22T11:46:52;18.50;63.90
27671;DHT22;15077;49.704;9.908;2023-02-22T11:49:23;18.60;63.10
27671;DHT22;15077;49.704;9.908;2023-02-22T11:58:23;18.70;62.30
27671;DHT22;15077;49.704;9.908;2023-02-22T12:01:20;18.80;62.50
27671;DHT22;15077;49.704;9.908;2023-02-22T12:04:34;18.90;62.50
27671;DHT22;15077;49.704;9.908;2023-02-22T12:07:33;19.10;62.40
27671;DHT22;15077;49.704;9.908;2023-02-22T12:13:35;19.30;61.70
27671;DHT22;15077;49.704;9.908;2023-02-22T12:16:23;19.50;61.70
27671;DHT22;15077;49.704;9.908;2023-02-22T12:21:47;19.70;61.00
27671;DHT22;15077;49.704;9.908;2023-02-22T12:24:22;19.80;60.50
27671;DHT22;15077;49.704;9.908;2023-02-22T12:27:00;19.80;60.40
27671;DHT22;15077;49.704;9.908;2023-02-22T12:29:35;19.90;60.30
27671;DHT22;15077;49.704;9.908;2023-02-22T12:32:16;19.90;59.70
27671;DHT22;15077;49.704;9.908;2023-02-22T12:34:57;20.00;59.50
27671;DHT22;15077;49.704;9.908;2023-02-22T12:40:24;20.00;59.20
27671;DHT22;15077;49.704;9.908;2023-02-22T12:45:53;20.00;59.20
27671;DHT22;15077;49.704;9.908;2023-02-22T12:48:56;20.00;59.00
27671;DHT22;15077;49.704;9.908;2023-02-22T12:51:55;20.00;58.10
27671;DHT22;15077;49.704;9.908;2023-02-22T12:54:51;20.00;57.50
27671;DHT22;15077;49.704;9.908;2023-02-22T13:03:23;19.90;57.40
27671;DHT22;15077;49.704;9.908;2023-02-22T13:06:23;19.80;57.00
27671;DHT22;15077;49.704;9.908;2023-02-22T13:12:00;19.70;57.40
27671;DHT22;15077;49.704;9.908;2023-02-22T13:20:24;19.50;57.30
27671;DHT22;15077;49.704;9.908;2023-02-22T13:23:04;19.50;57.50
27671;DHT22;15077;49.704;9.908;2023-02-22T13:25:40;19.40;57.30
27671;DHT22;15077;49.704;9.908;2023-02-22T13:28:30;19.40;57.10
27671;DHT22;15077;49.704;9.908;2023-02-22T13:31:03;19.40;57.20
27671;DHT22;15077;49.704;9.908;2023-02-22T13:51:12;19.30;57.30
27671;DHT22;15077;49.704;9.908;2023-02-22T13:56:50;19.20;57.30
27671;DHT22;15077;49.704;9.908;2023-02-22T13:59:27;19.20;57.60
27671;DHT22;15077;49.704;9.908;2023-02-22T14:01:59;19.30;57.40
27671;DHT22;15077;49.704;9.908;2023-02-22T14:09:53;19.20;56.90
27671;DHT22;15077;49.704;9.908;2023-02-22T14:17:48;19.20;57.10
27671;DHT22;15077;49.704;9.908;2023-02-22T14:25:49;19.10;57.10
27671;DHT22;15077;49.704;9.908;2023-02-22T14:31:27;19.00;57.00
27671;DHT22;15077;49.704;9.908;2023-02-22T14:34:14;19.00;57.10
27671;DHT22;15077;49.704;9.908;2023-02-22T14:39:32;19.00;57.50
27671;DHT22;15077;49.704;9.908;2023-02-22T14:42:28;19.00;57.70
27671;DHT22;15077;49.704;9.908;2023-02-22T14:47:50;19.00;56.50
27671;DHT22;15077;49.704;9.908;2023-02-22T14:50:53;19.00;56.80
27671;DHT22;15077;49.704;9.908;2023-02-22T14:53:29;19.00;56.90
27671;DHT22;15077;49.704;9.908;2023-02-22T15:02:17;18.90;56.80
27671;DHT22;15077;49.704;9.908;2023-02-22T15:04:51;18.90;56.40
27671;DHT22;15077;49.704;9.908;2023-02-22T15:07:25;18.90;56.50
27671;DHT22;15077;49.704;9.908;2023-02-22T15:10:19;18.80;56.40
27671;DHT22;15077;49.704;9.908;2023-02-22T15:13:00;18.80;56.60
27671;DHT22;15077;49.704;9.908;2023-02-22T15:16:11;18.70;56.80
27671;DHT22;15077;49.704;9.908;2023-02-22T15:18:41;18.70;57.00
27671;DHT22;15077;49.704;9.908;2023-02-22T15:21:10;18.70;57.10
27671;DHT22;15077;49.704;9.908;2023-02-22T15:24:03;18.60;57.10
27671;DHT22;15077;49.704;9.908;2023-02-22T15:26:36;18.60;57.00
27671;DHT22;15077;49.704;9.908;2023-02-22T15:29:08;18.60;56.90
27671;DHT22;15077;49.704;9.908;2023-02-22T15:31:39;18.60;56.90
27671;DHT22;15077;49.704;9.908;2023-02-22T15:36:45;18.50;56.80
27671;DHT22;15077;49.704;9.908;2023-02-22T15:39:22;18.50;57.00
27671;DHT22;15077;49.704;9.908;2023-02-22T15:42:06;18.50;57.10
27671;DHT22;15077;49.704;9.908;2023-02-22T15:44:41;18.40;57.30
27671;DHT22;15077;49.704;9.908;2023-02-22T15:47:21;18.30;57.30
27671;DHT22;15077;49.704;9.908;2023-02-22T15:52:58;18.30;57.40
27671;DHT22;15077;49.704;9.908;2023-02-22T15:55:34;18.20;57.50
27671;DHT22;15077;49.704;9.908;2023-02-22T16:01:03;18.20;58.30
27671;DHT22;15077;49.704;9.908;2023-02-22T16:03:41;18.10;57.70
27671;DHT22;15077;49.704;9.908;2023-02-22T16:06:30;18.10;57.70
27671;DHT22;15077;49.704;9.908;2023-02-22T16:09:08;18.00;57.80
27671;DHT22;15077;49.704;9.908;2023-02-22T16:11:37;17.90;57.50
27671;DHT22;15077;49.704;9.908;2023-02-22T16:19:51;17.80;57.70
27671;DHT22;15077;49.704;9.908;2023-02-22T16:27:54;17.60;57.90
27671;DHT22;15077;49.704;9.908;2023-02-22T16:30:28;17.50;57.90
27671;DHT22;15077;49.704;9.908;2023-02-22T16:32:57;17.50;58.10
27671;DHT22;15077;49.704;9.908;2023-02-22T16:35:24;17.40;58.20
27671;DHT22;15077;49.704;9.908;2023-02-22T16:38:19;17.40;58.30
27671;DHT22;15077;49.704;9.908;2023-02-22T16:40:53;17.40;58.30
27671;DHT22;15077;49.704;9.908;2023-02-22T16:43:30;17.40;58.40
27671;DHT22;15077;49.704;9.908;2023-02-22T16:46:01;17.40;58.40
27671;DHT22;15077;49.704;9.908;2023-02-22T16:48:30;17.30;58.40
27671;DHT22;15077;49.704;9.908;2023-02-22T16:51:08;17.30;58.50
27671;DHT22;15077;49.704;9.908;2023-02-22T16:53:42;17.30;58.50
27671;DHT22;15077;49.704;9.908;2023-02-22T16:56:10;17.20;58.60
27671;DHT22;15077;49.704;9.908;2023-02-22T16:58:40;17.20;58.60
27671;DHT22;15077;49.704;9.908;2023-02-22T17:01:06;17.20;58.70
27671;DHT22;15077;49.704;9.908;2023-02-22T17:03:32;17.10;58.70
27671;DHT22;15077;49.704;9.908;2023-02-22T17:05:58;17.10;58.80
27671;DHT22;15077;49.704;9.908;2023-02-22T17:08:24;17.00;58.70
27671;DHT22;15077;49.704;9.908;2023-02-22T17:10:50;17.00;58.70
27671;DHT22;15077;49.704;9.908;2023-02-22T17:13:23;17.00;58.70
27671;DHT22;15077;49.704;9.908;2023-02-22T17:15:50;16.90;58.60
27671;DHT22;15077;49.704;9.908;2023-02-22T17:18:18;16.90;58.60
27671;DHT22;15077;49.704;9.908;2023-02-22T17:20:48;16.80;58.60
27671;DHT22;15077;49.704;9.908;2023-02-22T17:23:15;16.80;58.60
27671;DHT22;15077;49.704;9.908;2023-02-22T17:25:44;16.70;58.60
27671;DHT22;15077;49.704;9.908;2023-02-22T17:28:14;16.60;58.60
27671;DHT22;15077;49.704;9.908;2023-02-22T17:30:40;16.60;58.70
27671;DHT22;15077;49.704;9.908;2023-02-22T17:33:13;16.50;58.70
27671;DHT22;15077;49.704;9.908;2023-02-22T17:35:41;16.50;58.70
27671;DHT22;15077;49.704;9.908;2023-02-22T17:38:08;16.40;58.70
27671;DHT22;15077;49.704;9.908;2023-02-22T17:40:36;16.40;58.70
27671;DHT22;15077;49.704;9.908;2023-02-22T17:43:04;16.30;58.70
27671;DHT22;15077;49.704;9.908;2023-02-22T17:45:36;16.20;58.70
27671;DHT22;15077;49.704;9.908;2023-02-22T17:48:02;16.20;58.70
27671;DHT22;15077;49.704;9.908;2023-02-22T17:50:28;16.10;58.70
27671;DHT22;15077;49.704;9.908;2023-02-22T17:52:57;16.10;58.80
27671;DHT22;15077;49.704;9.908;2023-02-22T17:55:28;16.00;59.40
27671;DHT22;15077;49.704;9.908;2023-02-22T17:57:56;15.90;58.80
27671;DHT22;15077;49.704;9.908;2023-02-22T18:00:27;15.90;58.90
27671;DHT22;15077;49.704;9.908;2023-02-22T18:03:02;15.80;58.80
27671;DHT22;15077;49.704;9.908;2023-02-22T18:05:42;15.80;58.90
27671;DHT22;15077;49.704;9.908;2023-02-22T18:08:11;15.70;58.90
27671;DHT22;15077;49.704;9.908;2023-02-22T18:10:37;15.60;58.90
27671;DHT22;15077;49.704;9.908;2023-02-22T18:13:03;15.60;58.90
27671;DHT22;15077;49.704;9.908;2023-02-22T18:15:29;15.50;58.90
27671;DHT22;15077;49.704;9.908;2023-02-22T18:18:01;15.50;59.00
27671;DHT22;15077;49.704;9.908;2023-02-22T18:20:29;15.40;59.00
27671;DHT22;15077;49.704;9.908;2023-02-22T18:23:04;15.40;59.10
27671;DHT22;15077;49.704;9.908;2023-02-22T18:25:35;15.30;59.20
27671;DHT22;15077;49.704;9.908;2023-02-22T18:28:03;15.30;59.90
27671;DHT22;15077;49.704;9.908;2023-02-22T18:30:31;15.20;59.40
27671;DHT22;15077;49.704;9.908;2023-02-22T18:32:57;15.20;59.40
27671;DHT22;15077;49.704;9.908;2023-02-22T18:35:23;15.20;59.40
27671;DHT22;15077;49.704;9.908;2023-02-22T18:37:49;15.10;59.50
27671;DHT22;15077;49.704;9.908;2023-02-22T18:40:14;15.10;59.50
27671;DHT22;15077;49.704;9.908;2023-02-22T18:42:44;15.00;59.60
27671;DHT22;15077;49.704;9.908;2023-02-22T18:45:11;15.00;59.60
27671;DHT22;15077;49.704;9.908;2023-02-22T18:47:39;14.90;59.50
27671;DHT22;15077;49.704;9.908;2023-02-22T18:50:10;14.90;59.60